createdAt,value
2018-07-24T00:01:14.508Z,62.49
2018-07-24T00:03:41.160Z,61.96
2018-07-24T00:06:07.833Z,62.30
2018-07-24T00:08:34.507Z,62.60
2018-07-24T00:11:01.306Z,61.76
2018-07-24T00:13:27.860Z,62.20
2018-07-24T00:15:55.456Z,62.81
2018-07-24T00:18:23.112Z,62.42
2018-07-24T00:20:49.781Z,63.00
2018-07-24T00:23:18.460Z,62.25
2018-07-24T00:25:46.108Z,62.41
2018-07-24T00:28:13.877Z,62.19
2018-07-24T00:30:40.532Z,62.74
2018-07-24T00:33:08.042Z,62.84
2018-07-24T00:35:35.649Z,62.37
2018-07-24T00:38:03.335Z,63.16
2018-07-24T00:40:30.952Z,62.92
2018-07-24T00:42:57.631Z,62.43
2018-07-24T00:45:24.315Z,62.29
2018-07-24T00:47:51.960Z,62.28
2018-07-24T00:50:19.069Z,62.64
2018-07-24T00:52:45.749Z,62.43
2018-07-24T00:55:14.563Z,63.11
2018-07-24T00:57:41.220Z,62.77
2018-07-24T01:00:07.925Z,63.06
2018-07-24T01:02:34.588Z,63.09
2018-07-24T01:05:02.158Z,62.40
2018-07-24T01:07:34.432Z,63.13
2018-07-24T01:10:01.989Z,63.18
2018-07-24T01:12:28.663Z,62.50
2018-07-24T01:14:55.308Z,62.93
2018-07-24T01:17:21.999Z,62.95
2018-07-24T01:19:48.656Z,63.09
2018-07-24T01:22:15.313Z,62.09
2018-07-24T01:24:42.588Z,62.89
2018-07-24T01:27:09.317Z,62.84
2018-07-24T01:29:35.988Z,62.36
2018-07-24T01:32:02.657Z,62.09
2018-07-24T01:34:29.318Z,62.56
2018-07-24T01:36:55.989Z,62.72
2018-07-24T01:39:22.641Z,63.10
2018-07-24T01:41:49.301Z,62.19
2018-07-24T01:44:15.949Z,62.07
2018-07-24T01:46:42.632Z,62.99
2018-07-24T01:49:09.325Z,62.27
2018-07-24T01:51:35.988Z,62.27
2018-07-24T01:54:02.636Z,62.93
2018-07-24T01:56:29.290Z,62.95
2018-07-24T01:58:55.947Z,62.60
2018-07-24T02:01:22.591Z,62.47
2018-07-24T02:03:49.237Z,62.40
2018-07-24T02:06:15.876Z,62.52
2018-07-24T02:08:42.548Z,63.32
2018-07-24T02:11:09.201Z,62.40
2018-07-24T02:13:35.868Z,63.40
2018-07-24T02:16:02.505Z,63.46
2018-07-24T02:18:29.165Z,62.85
2018-07-24T02:20:55.801Z,62.67
2018-07-24T02:23:22.492Z,63.07
2018-07-24T02:25:49.136Z,62.54
2018-07-24T02:28:15.805Z,63.04
2018-07-24T02:30:42.461Z,62.77
2018-07-24T02:33:09.132Z,62.64
2018-07-24T02:35:35.774Z,62.81
2018-07-24T02:38:02.424Z,63.14
2018-07-24T02:40:29.085Z,62.21
2018-07-24T02:42:55.745Z,62.81
2018-07-24T02:45:23.241Z,62.43
2018-07-24T02:47:49.968Z,62.58
2018-07-24T02:50:16.617Z,62.69
2018-07-24T02:52:43.297Z,62.85
2018-07-24T02:55:09.944Z,63.15
2018-07-24T02:57:36.597Z,63.48
2018-07-24T03:00:03.309Z,63.49
2018-07-24T03:02:29.953Z,63.50
2018-07-24T03:04:56.670Z,63.15
2018-07-24T03:07:23.318Z,62.90
2018-07-24T03:09:49.973Z,62.66
2018-07-24T03:12:16.629Z,63.28
2018-07-24T03:14:44.060Z,63.45
2018-07-24T03:17:10.834Z,63.46
2018-07-24T03:19:37.481Z,63.18
2018-07-24T03:22:04.140Z,62.80
2018-07-24T03:24:30.784Z,63.00
2018-07-24T03:26:57.425Z,63.70
2018-07-24T03:29:24.125Z,62.52
2018-07-24T03:31:50.769Z,63.50
2018-07-24T03:34:18.570Z,63.58
2018-07-24T03:36:45.219Z,63.55
2018-07-24T03:39:12.790Z,62.69
2018-07-24T03:41:40.214Z,63.07
2018-07-24T03:44:06.885Z,62.89
2018-07-24T03:46:33.665Z,63.88
2018-07-24T03:49:00.329Z,62.97
2018-07-24T03:51:27.381Z,63.73
2018-07-24T03:53:54.064Z,63.66
2018-07-24T03:56:22.176Z,63.67
2018-07-24T03:58:48.840Z,62.85
2018-07-24T04:01:15.497Z,63.00
2018-07-24T04:03:42.145Z,63.72
2018-07-24T04:06:08.800Z,62.76
2018-07-24T04:08:35.458Z,62.94
2018-07-24T04:11:02.112Z,63.38
2018-07-24T04:13:28.765Z,62.81
2018-07-24T04:15:55.428Z,62.68
2018-07-24T04:18:22.077Z,62.53
2018-07-24T04:20:48.728Z,62.78
2018-07-24T04:23:15.461Z,63.45
2018-07-24T04:25:42.109Z,62.75
2018-07-24T04:28:08.751Z,63.90
2018-07-24T04:30:35.389Z,63.80
2018-07-24T04:33:02.043Z,63.67
2018-07-24T04:35:28.717Z,62.96
2018-07-24T04:37:55.377Z,62.15
2018-07-24T04:40:22.114Z,63.57
2018-07-24T04:42:48.716Z,63.30
2018-07-24T04:45:15.353Z,62.79
2018-07-24T04:47:42.004Z,63.49
2018-07-24T04:50:08.654Z,62.78
2018-07-24T04:52:35.296Z,62.71
2018-07-24T04:55:01.962Z,62.41
2018-07-24T04:57:28.683Z,62.90
2018-07-24T04:59:55.328Z,62.65
2018-07-24T05:02:22.045Z,62.89
2018-07-24T05:04:48.713Z,62.55
2018-07-24T05:07:15.349Z,62.55
2018-07-24T05:09:42.092Z,63.22
2018-07-24T05:12:08.706Z,63.09
2018-07-24T05:14:35.355Z,62.56
2018-07-24T05:17:02.014Z,63.27
2018-07-24T05:19:28.652Z,62.42
2018-07-24T05:21:55.324Z,63.02
2018-07-24T05:24:21.988Z,63.40
2018-07-24T05:26:48.628Z,63.44
2018-07-24T05:29:15.300Z,62.40
2018-07-24T05:31:41.949Z,62.55
2018-07-24T05:34:08.655Z,62.56
2018-07-24T05:36:35.297Z,62.81
2018-07-24T05:39:01.945Z,63.39
2018-07-24T05:41:28.752Z,63.26
2018-07-24T05:43:55.580Z,62.96
2018-07-24T05:46:22.569Z,62.51
2018-07-24T05:48:49.321Z,62.43
2018-07-24T05:51:16.490Z,63.18
2018-07-24T05:53:44.282Z,63.26
2018-07-24T05:56:10.954Z,63.14
2018-07-24T05:58:37.596Z,62.30
2018-07-24T06:01:04.266Z,62.33
2018-07-24T06:03:31.005Z,63.08
2018-07-24T06:05:57.824Z,62.46
2018-07-24T06:08:24.494Z,62.87
2018-07-24T06:10:51.171Z,63.17
2018-07-24T06:13:19.122Z,62.45
2018-07-24T06:15:45.841Z,63.19
2018-07-24T06:18:12.509Z,63.46
2018-07-24T06:20:39.169Z,63.00
2018-07-24T06:23:05.840Z,62.56
2018-07-24T06:25:32.653Z,63.18
2018-07-24T06:27:59.355Z,62.65
2018-07-24T06:30:26.288Z,62.56
2018-07-24T06:32:52.977Z,62.73
2018-07-24T06:35:19.645Z,63.37
2018-07-24T06:37:46.344Z,62.79
2018-07-24T06:40:14.104Z,63.23
2018-07-24T06:42:40.793Z,63.28
2018-07-24T06:45:07.463Z,62.56
2018-07-24T06:47:34.940Z,62.46
2018-07-24T06:50:01.627Z,62.45
2018-07-24T06:52:29.245Z,63.41
2018-07-24T06:54:55.929Z,63.43
2018-07-24T06:57:22.616Z,62.62
2018-07-24T06:59:49.289Z,63.32
2018-07-24T07:02:16.017Z,63.45
2018-07-24T07:04:42.727Z,62.98
2018-07-24T07:07:09.426Z,63.10
2018-07-24T07:09:36.114Z,62.59
2018-07-24T07:12:02.788Z,63.36
2018-07-24T07:14:29.462Z,62.85
2018-07-24T07:16:56.170Z,62.71
2018-07-24T07:19:22.849Z,62.73
2018-07-24T07:21:49.567Z,62.75
2018-07-24T07:24:16.229Z,62.72
2018-07-24T07:26:42.901Z,63.34
2018-07-24T07:29:09.651Z,62.94
2018-07-24T07:31:36.334Z,63.30
2018-07-24T07:34:02.996Z,63.29
2018-07-24T07:36:29.699Z,63.10
2018-07-24T07:38:56.356Z,63.17
2018-07-24T07:41:23.056Z,62.72
2018-07-24T07:43:49.733Z,63.59
2018-07-24T07:46:16.437Z,63.38
2018-07-24T07:48:43.749Z,62.83
2018-07-24T07:51:10.514Z,63.11
2018-07-24T07:53:37.193Z,63.01
2018-07-24T07:56:03.852Z,62.73
2018-07-24T07:58:30.511Z,63.10
2018-07-24T08:00:57.192Z,62.73
2018-07-24T08:03:23.879Z,63.33
2018-07-24T08:05:50.543Z,63.37
2018-07-24T08:08:17.696Z,62.69
2018-07-24T08:10:45.069Z,63.47
2018-07-24T08:13:11.756Z,63.42
2018-07-24T08:15:38.521Z,63.35
2018-07-24T08:18:05.213Z,63.44
2018-07-24T08:20:31.888Z,63.21
2018-07-24T08:22:58.625Z,63.12
2018-07-24T08:25:25.300Z,63.21
2018-07-24T08:27:52.000Z,63.00
2018-07-24T08:30:18.933Z,63.21
2018-07-24T08:32:45.632Z,63.49
2018-07-24T08:35:12.345Z,63.07
2018-07-24T08:37:39.021Z,63.45
2018-07-24T08:40:05.773Z,63.51
2018-07-24T08:42:32.487Z,62.47
2018-07-24T08:44:59.146Z,63.17
2018-07-24T08:47:25.829Z,63.31
2018-07-24T08:49:52.490Z,63.07
2018-07-24T08:52:19.227Z,62.46
2018-07-24T08:54:46.061Z,62.71
2018-07-24T08:57:12.580Z,63.26
2018-07-24T08:59:39.251Z,63.64
2018-07-24T09:02:06.097Z,63.53
2018-07-24T09:04:32.764Z,63.09
2018-07-24T09:06:59.459Z,63.32
2018-07-24T09:09:26.165Z,63.11
2018-07-24T09:11:52.809Z,62.68
2018-07-24T09:14:19.575Z,63.29
2018-07-24T09:16:46.233Z,63.76
2018-07-24T09:19:12.893Z,63.58
2018-07-24T09:21:39.550Z,63.02
2018-07-24T09:24:06.208Z,62.91
2018-07-24T09:26:32.898Z,63.66
2018-07-24T09:28:59.537Z,62.85
2018-07-24T09:31:26.185Z,63.56
2018-07-24T09:33:52.834Z,62.81
2018-07-24T09:36:20.862Z,62.70
2018-07-24T09:38:48.734Z,62.73
2018-07-24T09:41:15.404Z,63.44
2018-07-24T09:43:42.180Z,63.12
2018-07-24T09:46:08.841Z,62.80
2018-07-24T09:48:35.500Z,62.97
2018-07-24T09:51:02.153Z,63.78
2018-07-24T09:53:28.925Z,62.92
2018-07-24T09:55:55.753Z,62.92
2018-07-24T09:58:22.410Z,63.45
2018-07-24T10:00:54.749Z,63.14
2018-07-24T10:03:21.401Z,63.32
2018-07-24T10:05:49.020Z,63.87
2018-07-24T10:08:15.697Z,63.13
2018-07-24T10:10:42.350Z,63.79
2018-07-24T10:13:09.104Z,63.57
2018-07-24T10:15:35.777Z,62.80
2018-07-24T10:18:02.465Z,63.52
2018-07-24T10:20:29.110Z,63.94
2018-07-24T10:22:56.137Z,63.72
2018-07-24T10:25:22.804Z,63.19
2018-07-24T10:27:49.452Z,63.42
2018-07-24T10:30:16.141Z,63.32
2018-07-24T10:32:42.797Z,63.93
2018-07-24T10:35:09.466Z,63.13
2018-07-24T10:37:36.148Z,63.15
2018-07-24T10:40:02.896Z,62.59
2018-07-24T10:42:29.564Z,63.21
2018-07-24T10:44:56.234Z,63.80
2018-07-24T10:47:22.916Z,63.61
2018-07-24T10:49:49.602Z,63.24
2018-07-24T10:52:16.296Z,64.03
2018-07-24T10:54:42.958Z,64.11
2018-07-24T10:57:09.807Z,63.67
2018-07-24T10:59:36.521Z,63.94
2018-07-24T11:02:03.196Z,63.97
2018-07-24T11:04:29.937Z,63.95
2018-07-24T11:06:56.602Z,63.29
2018-07-24T11:09:23.272Z,63.81
2018-07-24T11:11:49.934Z,63.04
2018-07-24T11:14:17.854Z,63.12
2018-07-24T11:16:45.635Z,64.03
2018-07-24T11:19:12.320Z,63.03
2018-07-24T11:21:38.988Z,62.82
2018-07-24T11:24:05.654Z,63.55
2018-07-24T11:26:32.317Z,63.14
2018-07-24T11:28:58.960Z,63.26
2018-07-24T11:31:25.613Z,63.52
2018-07-24T11:33:52.307Z,63.85
2018-07-24T11:36:19.928Z,63.83
2018-07-24T11:38:46.582Z,63.83
2018-07-24T11:41:13.929Z,63.52
2018-07-24T11:43:40.611Z,63.17
2018-07-24T11:46:07.636Z,64.10
2018-07-24T11:48:34.285Z,63.93
2018-07-24T11:51:00.965Z,63.01
2018-07-24T11:53:27.629Z,63.76
2018-07-24T11:55:54.333Z,63.09
2018-07-24T11:58:20.985Z,63.12
2018-07-24T12:00:48.713Z,63.12
2018-07-24T12:03:15.385Z,63.08
2018-07-24T12:05:42.072Z,63.99
2018-07-24T12:08:08.738Z,63.52
2018-07-24T12:10:35.409Z,63.22
2018-07-24T12:13:02.085Z,63.47
2018-07-24T12:15:28.750Z,64.00
2018-07-24T12:17:55.401Z,63.25
2018-07-24T12:20:22.158Z,63.77
2018-07-24T12:22:48.829Z,63.60
2018-07-24T12:25:15.500Z,62.95
2018-07-24T12:27:42.256Z,62.85
2018-07-24T12:30:09.017Z,63.08
2018-07-24T12:32:35.667Z,63.58
2018-07-24T12:35:02.328Z,62.81
2018-07-24T12:37:28.988Z,63.03
2018-07-24T12:39:55.659Z,64.04
2018-07-24T12:42:22.327Z,62.94
2018-07-24T12:44:48.974Z,63.92
2018-07-24T12:47:15.654Z,63.15
2018-07-24T12:49:42.333Z,63.18
2018-07-24T12:52:09.007Z,63.11
2018-07-24T12:54:36.745Z,63.84
2018-07-24T12:57:03.413Z,63.83
2018-07-24T12:59:30.062Z,63.30
2018-07-24T13:01:56.710Z,64.02
2018-07-24T13:04:23.365Z,63.29
2018-07-24T13:06:50.045Z,63.16
2018-07-24T13:09:16.708Z,63.26
2018-07-24T13:11:44.205Z,63.19
2018-07-24T13:14:10.862Z,63.46
2018-07-24T13:16:37.637Z,63.22
2018-07-24T13:19:04.285Z,63.13
2018-07-24T13:21:30.950Z,63.77
2018-07-24T13:23:57.788Z,63.93
2018-07-24T13:26:24.469Z,63.69
2018-07-24T13:28:51.122Z,63.36
2018-07-24T13:31:18.241Z,63.89
2018-07-24T13:33:45.552Z,63.06
2018-07-24T13:36:12.269Z,63.36
2018-07-24T13:38:38.957Z,63.94
2018-07-24T13:41:05.793Z,64.10
2018-07-24T13:43:32.451Z,64.08
2018-07-24T13:45:59.151Z,64.03
2018-07-24T13:48:25.808Z,63.56
2018-07-24T13:50:52.486Z,64.06
2018-07-24T13:53:19.174Z,63.45
2018-07-24T13:55:45.905Z,63.84
2018-07-24T13:58:12.573Z,63.69
2018-07-24T14:00:39.257Z,63.55
2018-07-24T14:03:05.909Z,63.13
2018-07-24T14:05:32.587Z,63.73
2018-07-24T14:07:59.251Z,63.22
2018-07-24T14:10:25.908Z,63.19
2018-07-24T14:12:52.645Z,62.95
2018-07-24T14:15:19.303Z,62.77
2018-07-24T14:17:45.964Z,61.80
2018-07-24T14:20:12.675Z,62.26
2018-07-24T14:22:39.330Z,61.29
2018-07-24T14:25:05.997Z,62.27
2018-07-24T14:27:32.814Z,61.53
2018-07-24T14:29:59.460Z,61.58
2018-07-24T14:32:26.125Z,61.46
2018-07-24T14:34:52.786Z,62.57
2018-07-24T14:37:19.457Z,62.33
2018-07-24T14:39:46.116Z,61.60
2018-07-24T14:42:12.785Z,62.63
2018-07-24T14:44:39.809Z,62.20
2018-07-24T14:47:06.488Z,61.88
2018-07-24T14:49:33.146Z,61.68
2018-07-24T14:51:59.866Z,61.67
2018-07-24T14:54:26.505Z,61.95
2018-07-24T14:56:53.221Z,62.66
2018-07-24T14:59:19.894Z,62.82
2018-07-24T15:01:46.586Z,62.48
2018-07-24T15:04:14.585Z,61.70
2018-07-24T15:06:41.328Z,62.75
2018-07-24T15:09:09.097Z,62.22
2018-07-24T15:11:35.744Z,62.11
2018-07-24T15:14:02.489Z,62.64
2018-07-24T15:16:29.141Z,62.48
2018-07-24T15:18:55.810Z,62.24
2018-07-24T15:21:22.494Z,62.71
2018-07-24T15:23:49.177Z,61.91
2018-07-24T15:26:15.825Z,62.12
2018-07-24T15:28:42.485Z,62.62
2018-07-24T15:31:09.185Z,62.23
2018-07-24T15:33:35.852Z,61.99
2018-07-24T15:36:02.514Z,61.87
2018-07-24T15:38:29.209Z,62.56
2018-07-24T15:40:55.896Z,62.14
2018-07-24T15:43:22.563Z,62.77
2018-07-24T15:45:49.224Z,62.59
2018-07-24T15:48:15.888Z,62.82
2018-07-24T15:50:42.569Z,63.04
2018-07-24T15:53:09.251Z,62.83
2018-07-24T15:55:35.929Z,62.46
2018-07-24T15:58:02.647Z,62.08
2018-07-24T16:00:29.342Z,62.42
2018-07-24T16:02:56.026Z,63.27
2018-07-24T16:05:22.702Z,62.87
2018-07-24T16:07:49.385Z,62.62
2018-07-24T16:10:16.101Z,62.03
2018-07-24T16:12:42.785Z,62.07
2018-07-24T16:15:09.452Z,62.16
2018-07-24T16:17:36.118Z,62.09
2018-07-24T16:20:02.796Z,63.07
2018-07-24T16:22:29.473Z,62.47
2018-07-24T16:24:56.140Z,63.14
2018-07-24T16:27:22.788Z,63.02
2018-07-24T16:29:49.452Z,62.67
2018-07-24T16:32:16.128Z,62.49
2018-07-24T16:34:42.849Z,62.90
2018-07-24T16:37:09.594Z,63.13
2018-07-24T16:39:36.223Z,62.93
2018-07-24T16:42:02.889Z,62.70
2018-07-24T16:44:29.892Z,62.71
2018-07-24T16:46:56.564Z,63.46
2018-07-24T16:49:23.232Z,62.98
2018-07-24T16:51:49.897Z,63.44
2018-07-24T16:54:16.550Z,62.96
2018-07-24T16:56:43.217Z,62.50
2018-07-24T16:59:10.161Z,62.60
2018-07-24T17:01:36.832Z,62.45
2018-07-24T17:04:03.498Z,62.97
2018-07-24T17:06:30.152Z,63.22
2018-07-24T17:08:56.856Z,62.53
2018-07-24T17:11:23.527Z,62.82
2018-07-24T17:13:50.204Z,63.23
2018-07-24T17:16:17.593Z,63.25
2018-07-24T17:18:44.349Z,63.30
2018-07-24T17:21:11.056Z,62.39
2018-07-24T17:23:37.734Z,63.43
2018-07-24T17:26:04.421Z,63.47
2018-07-24T17:28:31.150Z,63.66
2018-07-24T17:30:57.837Z,63.00
2018-07-24T17:33:24.545Z,63.36
2018-07-24T17:35:51.205Z,63.38
2018-07-24T17:38:18.860Z,62.68
2018-07-24T17:40:45.612Z,63.46
2018-07-24T17:43:12.241Z,62.62
2018-07-24T17:45:38.966Z,62.59
2018-07-24T17:48:05.633Z,62.79
2018-07-24T17:50:32.302Z,62.72
2018-07-24T17:52:58.981Z,63.21
2018-07-24T17:55:25.637Z,63.30
2018-07-24T17:57:52.341Z,62.92
2018-07-24T18:00:19.289Z,63.43
2018-07-24T18:02:45.952Z,62.78
2018-07-24T18:05:12.690Z,63.62
2018-07-24T18:07:39.341Z,63.46
2018-07-24T18:10:06.073Z,63.30
2018-07-24T18:12:32.741Z,63.51
2018-07-24T18:14:59.492Z,63.01
2018-07-24T18:17:26.101Z,62.67
2018-07-24T18:19:52.806Z,63.60
2018-07-24T18:22:20.363Z,63.31
2018-07-24T18:24:48.198Z,62.95
2018-07-24T18:27:14.883Z,62.70
2018-07-24T18:29:41.556Z,62.50
2018-07-24T18:32:08.212Z,62.63
2018-07-24T18:34:34.910Z,63.45
2018-07-24T18:37:01.593Z,63.40
2018-07-24T18:39:28.381Z,63.15
2018-07-24T18:41:55.059Z,63.53
2018-07-24T18:44:21.757Z,63.32
2018-07-24T18:46:49.443Z,62.75
2018-07-24T18:49:16.104Z,62.78
2018-07-24T18:51:42.913Z,63.48
2018-07-24T18:54:09.712Z,63.43
2018-07-24T18:56:36.441Z,63.32
2018-07-24T18:59:03.244Z,62.51
2018-07-24T19:01:30.148Z,63.08
2018-07-24T19:03:57.097Z,62.74
2018-07-24T19:06:24.116Z,62.72
2018-07-24T19:08:50.999Z,62.68
2018-07-24T19:11:18.498Z,63.36
2018-07-24T19:13:45.530Z,62.74
2018-07-24T19:16:12.500Z,63.38
2018-07-24T19:18:39.493Z,62.56
2018-07-24T19:21:06.508Z,63.17
2018-07-24T19:23:33.488Z,63.54
2018-07-24T19:26:00.498Z,62.91
2018-07-24T19:28:27.482Z,62.48
2018-07-24T19:30:54.508Z,62.65
2018-07-24T19:33:21.517Z,62.81
2018-07-24T19:35:49.363Z,62.73
2018-07-24T19:38:16.477Z,63.02
2018-07-24T19:40:45.408Z,62.57
2018-07-24T19:43:12.487Z,62.66
2018-07-24T19:45:39.564Z,62.82
2018-07-24T19:48:06.600Z,63.76
2018-07-24T19:50:33.612Z,62.81
2018-07-24T19:53:00.617Z,62.77
2018-07-24T19:55:27.649Z,63.44
2018-07-24T19:57:54.616Z,62.72
2018-07-24T20:00:21.652Z,62.70
2018-07-24T20:02:49.564Z,63.32
2018-07-24T20:05:16.611Z,63.35
2018-07-24T20:07:44.292Z,63.59
2018-07-24T20:10:11.664Z,63.67
2018-07-24T20:12:39.030Z,62.80
2018-07-24T20:15:07.149Z,63.23
2018-07-24T20:17:34.144Z,63.00
2018-07-24T20:20:01.146Z,63.43
2018-07-24T20:22:28.154Z,63.47
2018-07-24T20:24:55.161Z,62.87
2018-07-24T20:27:22.265Z,62.97
2018-07-24T20:29:49.283Z,62.96
2018-07-24T20:32:16.679Z,63.04
2018-07-24T20:34:44.638Z,62.95
2018-07-24T20:37:11.595Z,63.81
2018-07-24T20:39:38.500Z,63.96
2018-07-24T20:42:05.424Z,63.81
2018-07-24T20:44:32.413Z,62.96
2018-07-24T20:46:59.435Z,62.97
2018-07-24T20:49:26.200Z,63.46
2018-07-24T20:51:53.122Z,63.03
2018-07-24T20:54:19.940Z,64.01
2018-07-24T20:56:46.653Z,63.18
2018-07-24T20:59:13.420Z,63.39
2018-07-24T21:01:40.208Z,63.43
2018-07-24T21:04:06.904Z,63.32
2018-07-24T21:06:34.228Z,63.87
2018-07-24T21:09:00.913Z,64.05
2018-07-24T21:11:27.584Z,63.99
2018-07-24T21:13:54.252Z,63.14
2018-07-24T21:16:22.764Z,63.95
2018-07-24T21:18:49.781Z,64.15
2018-07-24T21:21:16.485Z,64.11
2018-07-24T21:23:43.146Z,63.57
2018-07-24T21:26:09.812Z,63.58
2018-07-24T21:28:36.499Z,64.08
2018-07-24T21:31:03.161Z,63.87
2018-07-24T21:33:29.834Z,64.07
2018-07-24T21:35:56.485Z,63.81
2018-07-24T21:38:23.162Z,63.54
2018-07-24T21:40:49.820Z,63.59
2018-07-24T21:43:16.481Z,63.55
2018-07-24T21:45:43.160Z,63.39
2018-07-24T21:48:09.850Z,63.38
2018-07-24T21:50:36.534Z,63.27
2018-07-24T21:53:04.121Z,64.21
2018-07-24T21:55:30.802Z,63.44
2018-07-24T21:57:57.584Z,63.81
2018-07-24T22:00:24.267Z,63.88
2018-07-24T22:02:50.963Z,64.18
2018-07-24T22:05:18.726Z,64.18
2018-07-24T22:07:45.376Z,63.90
2018-07-24T22:10:18.101Z,64.09
2018-07-24T22:12:46.221Z,63.37
2018-07-24T22:15:19.337Z,64.17
2018-07-24T22:17:46.001Z,63.46
2018-07-24T22:20:12.661Z,63.75
2018-07-24T22:22:39.334Z,63.29
2018-07-24T22:25:06.005Z,63.38
2018-07-24T22:27:32.680Z,63.99
2018-07-24T22:29:59.338Z,63.38
2018-07-24T22:32:26.003Z,63.35
2018-07-24T22:34:52.677Z,64.07
2018-07-24T22:37:19.348Z,63.68
2018-07-24T22:39:46.036Z,64.11
2018-07-24T22:42:12.707Z,64.23
2018-07-24T22:44:39.381Z,63.29
2018-07-24T22:47:06.056Z,64.09
2018-07-24T22:49:32.733Z,64.18
2018-07-24T22:51:59.425Z,63.59
2018-07-24T22:54:26.090Z,64.14
2018-07-24T22:56:52.777Z,64.45
2018-07-24T22:59:19.469Z,63.30
2018-07-24T23:01:48.443Z,64.33
2018-07-24T23:04:15.768Z,63.86
2018-07-24T23:06:42.452Z,64.19
2018-07-24T23:09:10.201Z,63.95
2018-07-24T23:11:36.940Z,63.38
2018-07-24T23:14:03.633Z,63.72
2018-07-24T23:16:30.309Z,63.87
2018-07-24T23:18:56.977Z,63.29
2018-07-24T23:21:23.648Z,64.27
2018-07-24T23:23:50.352Z,63.42
2018-07-24T23:26:18.317Z,64.12
2018-07-24T23:28:46.166Z,64.02
2018-07-24T23:31:12.833Z,64.22
2018-07-24T23:33:39.525Z,64.16
2018-07-24T23:36:06.209Z,63.38
2018-07-24T23:38:32.904Z,64.37
2018-07-24T23:40:59.573Z,63.92
2018-07-24T23:43:26.242Z,64.11
2018-07-24T23:45:52.903Z,64.17
2018-07-24T23:48:19.605Z,63.80
2018-07-24T23:50:46.281Z,64.19
2018-07-24T23:53:12.982Z,63.49
2018-07-24T23:55:39.653Z,64.07
2018-07-24T23:58:06.524Z,63.95
